Webcam

Richtung Osten

METAR LOWZ 281110Z AUTO 12003KT 9999 NCD 19/11 Q1022=

Richtung Westen

METAR LOWZ 281110Z AUTO 12003KT 9999 NCD 19/11 Q1022=

Richtung Norden

METAR LOWZ 281110Z AUTO 12003KT 9999 NCD 19/11 Q1022=